Beaver Island, MI

12:33 AM EST on February 25, 2017 (GMT -0500)
Beaver Island

Weather History for KSJX - April, 2013

Change the Weather History Date:

Sunday, April 7, 2013

  Actual Average Record
Temperature  
Mean Temperature 35 °F -  
Max Temperature 43 °F 44 °F 75 °F (1991)
Min Temperature 27 °F 27 °F 7 °F (1982)
Degree Days  
Heating Degree Days 30    
Moisture  
Dew Point 33 °F    
Average Humidity 87    
Maximum Humidity 99    
Minimum Humidity 67    
Precipitation  
Precipitation 0.00 in - - ()
Sea Level Pressure  
Sea Level Pressure 29.74 in    
Wind  
Wind Speed 9 mph (West)    
Max Wind Speed 16 mph    
Max Gust Speed 23 mph    
Visibility 8 miles    
Events Fog , Rain    
Averages and records for this station are not official NWS values.
T = Trace of Precipitation, MM = Missing Value Source: NWS Daily Summary

Daily Weather History Graph

Daily Weather History Graph

Search for Another Location

Airport or City:

Trip Planner

Search our weather history database for the weather conditions in past years. The results will help you decide how hot, cold, wet, or windy it might be!

Date:

Astronomy

Apr. 07, 2013 Rise Set
Actual Time 7:10 AM EDT 8:18 PM EDT
Civil Twilight 6:40 AM EDT 8:49 PM EDT
Nautical Twilight 6:03 AM EDT 9:25 PM EDT
Astronomical Twilight 5:25 AM EDT 10:04 PM EDT
Moon 5:35 AM EDT (4/7) 5:43 PM EDT (4/7)
Length of Visible Light 14h 09m
Length of Day
13h 08m
Waning Crescent, 8% of the Moon is Illuminated
Apr 7
Waning Crescent
Apr 10
New
Apr 18
First Quarter
Apr 25
Full
May 2
Last Quarter

Hourly Weather History & Observations

Time (EDT) Temp. Windchill Dew Point Humidity Pressure Visibility Wind Dir Wind Speed Gust Speed Precip Events Conditions
12:17 AM 41.4 °F 34.3 °F 32.0 °F 69% 29.51 in 10.0 mi SSE 12.7 mph 23.0 mph N/A   Overcast
12:36 AM 42.4 °F 37.5 °F 32.0 °F 67% 29.50 in 10.0 mi SSE 8.1 mph 21.9 mph N/A   Overcast
12:57 AM 41.9 °F 35.4 °F 32.9 °F 70% 29.48 in 10.0 mi SSE 11.5 mph 17.3 mph N/A   Drizzle
1:17 AM 41.2 °F 35.5 °F 34.0 °F 76% 29.46 in 10.0 mi SSE 9.2 mph 16.1 mph N/A   Drizzle
1:36 AM 40.6 °F 34.3 °F 35.8 °F 83% 29.45 in 7.0 mi South 10.4 mph 19.6 mph N/A   Drizzle
1:57 AM 41.2 °F 35.5 °F 38.1 °F 89% 29.45 in 5.0 mi SSE 9.2 mph 16.1 mph N/A   Drizzle
2:17 AM 41.9 °F 35.0 °F 40.3 °F 94% 29.44 in 4.0 mi South 12.7 mph 17.3 mph N/A Rain Rain
2:36 AM 41.9 °F 36.3 °F 40.6 °F 95% 29.43 in 4.0 mi South 9.2 mph 18.4 mph N/A Rain Heavy Rain
2:57 AM 42.1 °F 37.1 °F 41.0 °F 96% 29.42 in 4.0 mi South 8.1 mph 19.6 mph N/A   Heavy Drizzle
3:16 AM 43.2 °F 37.4 °F 42.3 °F 97% 29.42 in 4.0 mi SSW 10.4 mph 16.1 mph N/A   Drizzle
3:36 AM 42.6 °F 34.9 °F 41.7 °F 97% 29.41 in 3.0 mi SW 16.1 mph 19.6 mph N/A Rain Light Rain
3:57 AM 40.3 °F 33.4 °F 39.6 °F 97% 29.42 in 2.0 mi SW 11.5 mph 18.4 mph N/A   Light Drizzle
4:16 AM 38.1 °F 31.7 °F 37.4 °F 97% 29.42 in 0.8 mi WSW 9.2 mph - N/A Rain Light Rain
4:36 AM 37.2 °F 30.6 °F 36.7 °F 98% 29.41 in 0.5 mi WSW 9.2 mph - N/A Fog Fog
4:57 AM 36.7 °F 29.9 °F 36.5 °F 99% 29.42 in 0.5 mi West 9.2 mph - N/A Fog Fog
5:17 AM 35.6 °F 28.6 °F 35.1 °F 98% 29.44 in 1.8 mi WNW 9.2 mph - N/A Rain Rain
5:37 AM 34.7 °F 26.9 °F 34.3 °F 99% 29.45 in 2.5 mi WNW 10.4 mph - N/A Rain Rain
5:56 AM 34.7 °F 26.9 °F 34.3 °F 99% 29.47 in 2.5 mi WNW 10.4 mph - N/A Rain Rain
6:16 AM 34.2 °F 27.5 °F 34.0 °F 99% 29.48 in 3.0 mi WNW 8.1 mph - N/A Rain Rain
6:36 AM 34.0 °F 26.6 °F 33.8 °F 99% 29.50 in 3.0 mi West 9.2 mph - N/A Rain Light Rain
6:56 AM 33.6 °F 25.6 °F 33.4 °F 99% 29.53 in 3.0 mi WNW 10.4 mph 18.4 mph N/A   Overcast
7:17 AM 33.8 °F 25.3 °F 33.4 °F 99% 29.54 in 5.0 mi West 11.5 mph 17.3 mph N/A Rain Light Rain
7:36 AM 34.0 °F 27.2 °F 33.8 °F 99% 29.56 in 10.0 mi WNW 8.1 mph 19.6 mph N/A Rain Light Rain
7:57 AM 34.2 °F 25.2 °F 33.8 °F 99% 29.58 in 10.0 mi WNW 12.7 mph 18.4 mph N/A   Overcast
8:17 AM 34.3 °F 26.5 °F 33.4 °F 97% 29.60 in 10.0 mi WNW 10.4 mph 19.6 mph N/A   Overcast
8:36 AM 34.7 °F 26.4 °F 33.4 °F 95% 29.62 in 10.0 mi WNW 11.5 mph 19.6 mph N/A   Overcast
8:57 AM 35.1 °F 26.4 °F 33.6 °F 94% 29.63 in 10.0 mi WNW 12.7 mph 19.6 mph N/A   Overcast
9:17 AM 35.6 °F 28.0 °F 33.8 °F 93% 29.65 in 10.0 mi WNW 10.4 mph 18.4 mph N/A   Overcast
9:36 AM 35.6 °F 28.0 °F 33.8 °F 93% 29.66 in 10.0 mi WNW 10.4 mph 16.1 mph N/A   Overcast
9:57 AM 35.6 °F 29.9 °F 33.4 °F 92% 29.68 in 10.0 mi WNW 6.9 mph - N/A   Overcast
10:16 AM 35.6 °F 28.6 °F 33.3 °F 91% 29.69 in 10.0 mi WNW 9.2 mph 18.4 mph N/A   Overcast
10:36 AM 35.6 °F 29.2 °F 32.9 °F 90% 29.71 in 10.0 mi WNW 8.1 mph 18.4 mph N/A   Overcast
10:57 AM 35.6 °F 27.5 °F 32.4 °F 88% 29.72 in 10.0 mi NW 11.5 mph 19.6 mph N/A   Overcast
11:16 AM 35.6 °F 28.0 °F 32.4 °F 88% 29.74 in 10.0 mi WNW 10.4 mph 20.7 mph N/A   Overcast
11:36 AM 36.1 °F 28.7 °F 32.5 °F 87% 29.76 in 10.0 mi West 10.4 mph 18.4 mph N/A   Overcast
11:57 AM 36.9 °F 29.1 °F 32.4 °F 84% 29.78 in 10.0 mi WNW 11.5 mph 18.4 mph N/A   Overcast
12:16 PM 37.2 °F 30.0 °F 32.2 °F 82% 29.79 in 10.0 mi West 10.4 mph 18.4 mph N/A   Overcast
12:37 PM 37.9 °F 30.9 °F 32.0 °F 79% 29.80 in 10.0 mi WNW 10.4 mph 18.4 mph N/A   Overcast
12:56 PM 37.9 °F 31.5 °F 32.0 °F 79% 29.82 in 10.0 mi WNW 9.2 mph 17.3 mph N/A   Overcast
1:17 PM 39.2 °F 32.0 °F 32.2 °F 76% 29.83 in 10.0 mi WNW 11.5 mph 17.3 mph N/A   Overcast
1:36 PM 39.2 °F 31.2 °F 32.0 °F 75% 29.84 in 10.0 mi West 13.8 mph 19.6 mph N/A   Overcast
1:56 PM 39.2 °F 32.5 °F 32.0 °F 75% 29.86 in 10.0 mi West 10.4 mph 19.6 mph N/A   Overcast
2:16 PM 38.8 °F 32.1 °F 32.0 °F 76% 29.87 in 10.0 mi WNW 10.4 mph 17.3 mph N/A   Overcast
2:36 PM 38.3 °F 31.9 °F 31.3 °F 76% 29.89 in 10.0 mi WNW 9.2 mph 16.1 mph N/A   Overcast
2:57 PM 39.4 °F 32.7 °F 31.8 °F 74% 29.90 in 10.0 mi WNW 10.4 mph 17.3 mph N/A   Overcast
3:17 PM 39.2 °F 32.5 °F 31.6 °F 74% 29.90 in 10.0 mi NW 10.4 mph 17.3 mph N/A   Overcast
3:36 PM 40.1 °F 34.1 °F 31.8 °F 72% 29.91 in 10.0 mi WNW 9.2 mph 16.1 mph N/A   Mostly Cloudy
3:57 PM 40.1 °F 34.1 °F 32.0 °F 73% 29.91 in 10.0 mi WNW 9.2 mph - N/A   Mostly Cloudy
4:17 PM 39.9 °F 33.4 °F 31.1 °F 71% 29.93 in 10.0 mi NW 10.4 mph 18.4 mph N/A   Mostly Cloudy
4:36 PM 38.7 °F 32.9 °F 31.3 °F 75% 29.94 in 10.0 mi WNW 8.1 mph - N/A   Overcast
4:57 PM 37.9 °F 30.5 °F 30.4 °F 74% 29.95 in 10.0 mi WNW 11.5 mph - N/A   Overcast
5:16 PM 37.9 °F 32.7 °F 31.1 °F 76% 29.96 in 10.0 mi WNW 6.9 mph - N/A   Overcast
5:36 PM 37.8 °F 31.8 °F 30.4 °F 75% 29.97 in 10.0 mi NW 8.1 mph - N/A   Overcast
5:57 PM 36.7 °F 32.0 °F 30.2 °F 77% 29.98 in 10.0 mi NW 5.8 mph - N/A   Overcast
6:16 PM 37.4 °F 32.8 °F 30.2 °F 75% 29.98 in 10.0 mi NNW 5.8 mph - N/A   Mostly Cloudy
6:37 PM 36.7 °F 31.2 °F 29.3 °F 75% 29.98 in 10.0 mi NNW 6.9 mph - N/A   Scattered Clouds
6:57 PM 37.2 °F 32.6 °F 29.3 °F 73% 29.97 in 10.0 mi NNW 5.8 mph - N/A   Scattered Clouds
7:16 PM 36.3 °F 32.5 °F 29.1 °F 75% 29.98 in 10.0 mi NNW 4.6 mph - N/A   Clear
7:37 PM 35.6 °F - 28.8 °F 76% 29.98 in 10.0 mi Calm Calm - N/A   Clear
7:57 PM 35.4 °F - 29.3 °F 78% 29.99 in 10.0 mi Calm Calm - N/A   Scattered Clouds
8:16 PM 34.2 °F - 29.1 °F 82% 29.99 in 10.0 mi Calm Calm - N/A   Clear
8:36 PM 32.7 °F - 29.3 °F 87% 29.99 in 10.0 mi Calm Calm - N/A   Clear
8:57 PM 30.7 °F - 28.4 °F 91% 30.00 in 10.0 mi Calm Calm - N/A   Clear
9:16 PM 30.2 °F - 28.2 °F 92% 30.00 in 10.0 mi Calm Calm - N/A   Clear
9:37 PM 29.3 °F - 27.9 °F 94% 30.01 in 10.0 mi Calm Calm - N/A   Clear
9:57 PM 28.9 °F - 27.9 °F 96% 30.02 in 10.0 mi Calm Calm - N/A   Clear
10:16 PM 28.2 °F - 27.3 °F 96% 30.02 in 10.0 mi Calm Calm - N/A   Clear
10:37 PM 28.2 °F - 27.5 °F 97% 30.02 in 10.0 mi Calm Calm - N/A   Clear
10:56 PM 28.4 °F - 27.7 °F 97% 30.03 in 10.0 mi Calm Calm - N/A   Clear
11:16 PM 27.3 °F - 26.6 °F 97% 30.03 in 10.0 mi Calm Calm - N/A   Clear
11:37 PM 28.2 °F - 27.9 °F 99% 30.04 in 10.0 mi Calm Calm - N/A   Clear
11:56 PM 27.7 °F 22.4 °F 27.3 °F 99% 30.02 in 10.0 mi East 4.6 mph - N/A   Clear